Weather reports worldwide

Advertisment
Aosta, Italy (16054): temperature & dewpoint: 15.01.2018 04:00:00 - 21.01.2018 04:00:00 (CET)Aosta, Italy (16054): wind speed: 15.01.2018 04:00:00 - 21.01.2018 04:00:00 (CET)Aosta, Italy (16054): wind direction: 15.01.2018 04:00:00 - 21.01.2018 04:00:00 (CET)Aosta, Italy (16054): precipitation: 15.01.2018 04:00:00 - 21.01.2018 04:00:00 (CET)
Date & Time tt [°C] td [°C] ff [km/h] ff [kn] dd rr [mm]
21.01.2018 04:00:00 - - - - - -
21.01.2018 03:00:00 1,4 0,1 2 1 ENE -
21.01.2018 02:00:00 1,3 0,0 4 2 N -
21.01.2018 01:00:00 1,3 0,0 0 0 N -
21.01.2018 00:00:00 1,3 -0,2 0 0 N -
20.01.2018 23:00:00 1,5 0,2 2 1 NE -
20.01.2018 22:00:00 1,3 -0,2 0 0 N -
20.01.2018 21:00:00 1,3 -0,3 0 0 N -
20.01.2018 20:00:00 1,3 -0,2 0 0 N -
20.01.2018 19:00:00 1,3 -0,5 0 0 N -
20.01.2018 18:00:00 1,5 -0,6 0 0 N -
20.01.2018 17:00:00 2,1 -1,0 0 0 N -
20.01.2018 16:00:00 3,7 -0,2 2 1 E -
20.01.2018 15:00:00 6,2 -0,9 4 2 NNW -
20.01.2018 14:00:00 8,2 -6,5 5 3 WSW -
20.01.2018 13:00:00 8,2 -7,7 11 6 W 0,0
20.01.2018 12:00:00 7,8 -8,4 8 4 SW -
20.01.2018 11:00:00 7,2 -7,8 9 5 WSW -
20.01.2018 10:00:00 6,2 -7,6 15 8 WSW -
20.01.2018 09:00:00 5,4 -9,7 16 9 NW -
20.01.2018 08:00:00 4,5 -7,4 15 8 SW -
20.01.2018 07:00:00 2,9 -5,4 5 3 SSW 0,0
20.01.2018 06:00:00 2,3 -6,2 2 1 W -
20.01.2018 05:00:00 4,9 -9,1 5 3 WSW -
20.01.2018 04:00:00 6,0 -9,2 9 5 W -
20.01.2018 03:00:00 6,0 -10,4 15 8 W -
20.01.2018 02:00:00 6,7 -9,0 11 6 WSW -
20.01.2018 01:00:00 6,6 -4,6 5 3 W -
20.01.2018 00:00:00 7,2 -4,4 11 6 W -
19.01.2018 23:00:00 7,3 -2,3 28 15 NNW -
19.01.2018 22:00:00 8,0 -3,3 22 12 NNW -
19.01.2018 21:00:00 8,5 -4,8 4 2 W -
19.01.2018 20:00:00 8,8 -7,5 8 4 NW -
19.01.2018 19:00:00 8,9 -7,0 8 4 WSW 0,0
19.01.2018 18:00:00 9,2 -8,5 26 14 SW -
19.01.2018 17:00:00 9,9 -7,4 15 8 WSW -
19.01.2018 16:00:00 11,6 -10,7 18 10 W -
19.01.2018 15:00:00 11,9 -9,3 16 9 W -
19.01.2018 14:00:00 12,7 -9,8 15 8 SW -
19.01.2018 13:00:00 12,7 -7,0 21 11 W 0,0
19.01.2018 12:00:00 10,8 -5,8 15 8 NW -
19.01.2018 11:00:00 10,6 -6,4 16 9 W -
19.01.2018 10:00:00 9,8 -0,2 21 11 W -
19.01.2018 09:00:00 9,8 0,6 18 10 W -
19.01.2018 08:00:00 9,7 1,3 11 6 WNW -
19.01.2018 07:00:00 9,4 2,2 21 11 NW 0,0
19.01.2018 06:00:00 10,4 2,2 24 13 NW -
19.01.2018 05:00:00 12,0 -0,3 13 7 WNW -
19.01.2018 04:00:00 11,2 -1,0 13 7 W -
19.01.2018 03:00:00 12,0 -3,1 13 7 NW -
19.01.2018 02:00:00 10,3 0,5 15 8 NNW -
19.01.2018 01:00:00 9,6 1,9 11 6 WSW 0,0
19.01.2018 00:00:00 8,4 1,9 15 8 NW -
18.01.2018 23:00:00 9,6 2,4 15 8 W -
18.01.2018 22:00:00 9,9 2,6 13 7 W -
18.01.2018 21:00:00 9,6 2,4 16 9 W -
18.01.2018 20:00:00 9,7 2,5 18 10 WSW -
18.01.2018 19:00:00 9,5 2,3 18 10 NW -
18.01.2018 18:00:00 9,7 2,7 18 10 NW -
18.01.2018 17:00:00 9,9 2,4 21 11 NW -
18.01.2018 16:00:00 11,8 0,4 16 9 W -
18.01.2018 15:00:00 12,2 -0,1 24 13 NW -
18.01.2018 14:00:00 12,9 -0,8 13 7 W -
18.01.2018 13:00:00 12,6 -0,8 22 12 NW 0,0
18.01.2018 12:00:00 11,7 -1,9 15 8 W -
18.01.2018 11:00:00 8,9 -0,3 13 7 WNW -
18.01.2018 10:00:00 8,1 -1,0 13 7 NW -
18.01.2018 09:00:00 7,3 -1,8 13 7 W -
18.01.2018 08:00:00 6,3 -1,7 28 15 NNW -
18.01.2018 07:00:00 6,7 -3,1 26 14 NW 0,0
18.01.2018 06:00:00 7,3 -6,2 26 14 NW -
18.01.2018 05:00:00 6,7 -7,8 28 15 NW -
18.01.2018 04:00:00 6,7 -8,2 13 7 W -
18.01.2018 03:00:00 6,1 -7,3 4 2 WSW -
18.01.2018 02:00:00 5,7 -7,7 11 6 WNW -
18.01.2018 01:00:00 6,0 -8,1 9 5 WSW 0,0
18.01.2018 00:00:00 5,5 -9,6 9 5 WNW -
17.01.2018 23:00:00 5,4 -9,7 8 4 W -
17.01.2018 22:00:00 5,6 -9,2 18 10 WSW -
17.01.2018 21:00:00 5,8 -11,5 24 13 WNW -
17.01.2018 20:00:00 5,4 -9,7 11 6 W -
17.01.2018 19:00:00 5,4 -10,1 11 6 WSW -
17.01.2018 18:00:00 5,6 -11,6 13 7 WNW -
17.01.2018 17:00:00 6,0 -10,4 21 11 NW -
17.01.2018 16:00:00 4,7 -7,9 13 7 WNW -
17.01.2018 15:00:00 6,9 -8,8 15 8 WNW -
17.01.2018 14:00:00 6,6 -10,8 24 13 W -
17.01.2018 13:00:00 5,3 -5,5 11 6 W -
17.01.2018 12:00:00 5,2 -4,2 29 16 WNW -
17.01.2018 11:00:00 5,7 -6,7 21 11 WNW -
17.01.2018 10:00:00 4,4 -0,1 11 6 W -
17.01.2018 09:00:00 4,1 0,6 35 19 SW -
17.01.2018 08:00:00 7,9 -4,0 24 13 W -
17.01.2018 07:00:00 8,3 -5,7 18 10 WNW -
17.01.2018 06:00:00 6,8 -0,3 22 12 W -
17.01.2018 05:00:00 7,0 1,6 13 7 WSW -
17.01.2018 04:00:00 8,7 0,1 22 12 W -
17.01.2018 03:00:00 9,9 1,9 24 13 W -
17.01.2018 02:00:00 10,3 2,3 15 8 WNW -
17.01.2018 01:00:00 9,7 0,7 18 10 NNW -
17.01.2018 00:00:00 10,1 2,1 11 6 W -
16.01.2018 23:00:00 8,4 3,8 15 8 W -
16.01.2018 22:00:00 9,0 3,8 13 7 WNW -
16.01.2018 21:00:00 5,1 2,4 9 5 W -
16.01.2018 20:00:00 10,0 1,8 16 9 NNW -
16.01.2018 19:00:00 10,1 1,6 15 8 W 0,0
16.01.2018 18:00:00 10,8 1,5 15 8 WNW -
16.01.2018 17:00:00 11,3 0,9 15 8 W -
16.01.2018 16:00:00 11,3 1,2 9 5 WNW -
16.01.2018 15:00:00 10,4 -0,8 34 18 SW -
16.01.2018 14:00:00 2,8 0,0 0 0 N -
16.01.2018 13:00:00 2,2 -0,1 4 2 SE 0,0
16.01.2018 12:00:00 1,6 0,0 0 0 N -
16.01.2018 11:00:00 1,0 -0,3 2 1 SSE -
16.01.2018 10:00:00 0,4 -0,9 0 0 N -
16.01.2018 09:00:00 0,1 -1,2 0 0 N -
16.01.2018 08:00:00 0,2 -1,0 0 0 N -
16.01.2018 07:00:00 0,2 -1,0 0 0 N -
16.01.2018 06:00:00 0,1 -1,4 0 0 N -
16.01.2018 05:00:00 0,2 -1,3 0 0 N -
16.01.2018 04:00:00 0,4 -1,1 0 0 N -
16.01.2018 03:00:00 0,5 -1,1 0 0 N -
16.01.2018 02:00:00 0,4 -1,4 0 0 N -
16.01.2018 01:00:00 0,6 -1,7 0 0 N -
16.01.2018 00:00:00 0,9 -1,9 0 0 N -
15.01.2018 23:00:00 0,9 -2,2 4 2 NE -
15.01.2018 22:00:00 0,7 -2,4 2 1 NE -
15.01.2018 21:00:00 0,5 -2,9 0 0 N -
15.01.2018 20:00:00 0,7 -3,3 4 2 SE -
15.01.2018 19:00:00 0,7 -3,5 2 1 W 0,0
15.01.2018 18:00:00 1,6 -3,5 2 1 E -
15.01.2018 17:00:00 2,7 -4,8 0 0 N -
15.01.2018 16:00:00 3,3 -3,6 0 0 N -
15.01.2018 15:00:00 3,2 -4,1 0 0 N -
15.01.2018 14:00:00 2,4 -4,0 0 0 N -
15.01.2018 13:00:00 -0,8 -3,9 2 1 ENE 0,0
15.01.2018 12:00:00 -3,2 -5,6 0 0 N -
15.01.2018 11:00:00 -3,7 -6,0 0 0 N -
15.01.2018 10:00:00 -3,8 -6,3 0 0 N -
15.01.2018 09:00:00 -4,0 -6,3 4 2 S -
15.01.2018 08:00:00 -4,3 -7,0 0 0 N -
15.01.2018 07:00:00 -4,0 -6,3 0 0 N 0,0
15.01.2018 06:00:00 -4,0 -6,3 2 1 NW -
15.01.2018 05:00:00 -3,6 -6,1 2 1 NNE -
15.01.2018 04:00:00 -3,7 -6,2 0 0 N -

tt = temperature
td = dewpoint
ff = wind speed
dd = wind direction
rr = precipitation

Next stations